sensor_id;sensor_type;location;lat;lon;timestamp;P1;durP1;ratioP1;P2;durP2;ratioP2
70800;SDS011;59616;52.170;5.386;2022-07-12T00:01:59;5.93;;;2.47;;
70800;SDS011;59616;52.170;5.386;2022-07-12T00:04:27;7.63;;;2.72;;
70800;SDS011;59616;52.170;5.386;2022-07-12T00:06:55;8.13;;;2.95;;
70800;SDS011;59616;52.170;5.386;2022-07-12T00:09:21;7.45;;;3.15;;
70800;SDS011;59616;52.170;5.386;2022-07-12T00:11:48;8.32;;;4.25;;
70800;SDS011;59616;52.170;5.386;2022-07-12T00:14:15;7.00;;;3.25;;
70800;SDS011;59616;52.170;5.386;2022-07-12T00:16:42;7.22;;;3.35;;
70800;SDS011;59616;52.170;5.386;2022-07-12T00:19:09;8.57;;;3.67;;
70800;SDS011;59616;52.170;5.386;2022-07-12T00:21:36;8.63;;;3.90;;
70800;SDS011;59616;52.170;5.386;2022-07-12T00:24:02;7.30;;;3.47;;
70800;SDS011;59616;52.170;5.386;2022-07-12T00:26:29;9.07;;;3.83;;
70800;SDS011;59616;52.170;5.386;2022-07-12T00:28:56;8.57;;;3.63;;
70800;SDS011;59616;52.170;5.386;2022-07-12T00:31:24;8.43;;;3.58;;
70800;SDS011;59616;52.170;5.386;2022-07-12T00:33:50;8.32;;;3.65;;
70800;SDS011;59616;52.170;5.386;2022-07-12T00:36:18;8.05;;;3.45;;
70800;SDS011;59616;52.170;5.386;2022-07-12T00:38:46;7.93;;;3.50;;
70800;SDS011;59616;52.170;5.386;2022-07-12T00:41:13;6.93;;;3.53;;
70800;SDS011;59616;52.170;5.386;2022-07-12T00:43:39;7.95;;;3.88;;
70800;SDS011;59616;52.170;5.386;2022-07-12T00:46:06;8.95;;;3.92;;
70800;SDS011;59616;52.170;5.386;2022-07-12T00:48:33;8.77;;;4.03;;
70800;SDS011;59616;52.170;5.386;2022-07-12T00:51:01;11.18;;;3.88;;
70800;SDS011;59616;52.170;5.386;2022-07-12T00:53:28;8.52;;;4.07;;
70800;SDS011;59616;52.170;5.386;2022-07-12T00:55:56;8.90;;;4.13;;
70800;SDS011;59616;52.170;5.386;2022-07-12T00:58:23;7.60;;;3.95;;
70800;SDS011;59616;52.170;5.386;2022-07-12T01:00:51;7.97;;;3.80;;
70800;SDS011;59616;52.170;5.386;2022-07-12T01:03:18;8.23;;;4.15;;
70800;SDS011;59616;52.170;5.386;2022-07-12T01:05:45;7.65;;;3.92;;
70800;SDS011;59616;52.170;5.386;2022-07-12T01:08:13;10.05;;;4.45;;
70800;SDS011;59616;52.170;5.386;2022-07-12T01:10:41;10.38;;;4.07;;
70800;SDS011;59616;52.170;5.386;2022-07-12T01:13:09;7.68;;;4.03;;
70800;SDS011;59616;52.170;5.386;2022-07-12T01:15:37;10.45;;;4.05;;
70800;SDS011;59616;52.170;5.386;2022-07-12T01:18:04;10.20;;;4.70;;
70800;SDS011;59616;52.170;5.386;2022-07-12T01:20:31;10.27;;;4.97;;
70800;SDS011;59616;52.170;5.386;2022-07-12T01:22:59;8.10;;;4.25;;
70800;SDS011;59616;52.170;5.386;2022-07-12T01:25:26;11.05;;;4.50;;
70800;SDS011;59616;52.170;5.386;2022-07-12T01:27:53;8.95;;;4.55;;
70800;SDS011;59616;52.170;5.386;2022-07-12T01:30:20;8.60;;;4.40;;
70800;SDS011;59616;52.170;5.386;2022-07-12T01:32:47;9.23;;;4.45;;
70800;SDS011;59616;52.170;5.386;2022-07-12T01:35:15;9.60;;;4.45;;
70800;SDS011;59616;52.170;5.386;2022-07-12T01:37:42;7.85;;;3.72;;
70800;SDS011;59616;52.170;5.386;2022-07-12T01:40:10;8.65;;;3.75;;
70800;SDS011;59616;52.170;5.386;2022-07-12T01:42:38;6.88;;;3.35;;
70800;SDS011;59616;52.170;5.386;2022-07-12T01:45:06;8.07;;;3.17;;
70800;SDS011;59616;52.170;5.386;2022-07-12T01:47:33;7.93;;;3.50;;
70800;SDS011;59616;52.170;5.386;2022-07-12T01:50:01;7.45;;;3.28;;
70800;SDS011;59616;52.170;5.386;2022-07-12T01:52:34;8.70;;;3.78;;
70800;SDS011;59616;52.170;5.386;2022-07-12T01:55:08;8.63;;;3.70;;
70800;SDS011;59616;52.170;5.386;2022-07-12T01:57:36;8.05;;;3.55;;
70800;SDS011;59616;52.170;5.386;2022-07-12T02:00:04;7.63;;;3.55;;
70800;SDS011;59616;52.170;5.386;2022-07-12T02:02:33;7.07;;;3.33;;
70800;SDS011;59616;52.170;5.386;2022-07-12T02:05:00;8.75;;;3.88;;
70800;SDS011;59616;52.170;5.386;2022-07-12T02:07:29;7.82;;;3.90;;
70800;SDS011;59616;52.170;5.386;2022-07-12T02:09:56;10.57;;;3.60;;
70800;SDS011;59616;52.170;5.386;2022-07-12T02:12:23;9.68;;;3.75;;
70800;SDS011;59616;52.170;5.386;2022-07-12T02:14:51;7.70;;;3.83;;
70800;SDS011;59616;52.170;5.386;2022-07-12T02:17:17;7.95;;;3.58;;
70800;SDS011;59616;52.170;5.386;2022-07-12T02:19:45;9.38;;;3.67;;
70800;SDS011;59616;52.170;5.386;2022-07-12T02:22:12;8.07;;;3.65;;
70800;SDS011;59616;52.170;5.386;2022-07-12T02:24:38;9.35;;;3.60;;
70800;SDS011;59616;52.170;5.386;2022-07-12T02:27:05;8.60;;;3.72;;
70800;SDS011;59616;52.170;5.386;2022-07-12T02:29:32;9.38;;;3.78;;
70800;SDS011;59616;52.170;5.386;2022-07-12T02:31:59;7.82;;;3.60;;
70800;SDS011;59616;52.170;5.386;2022-07-12T02:34:26;7.85;;;3.60;;
70800;SDS011;59616;52.170;5.386;2022-07-12T02:36:53;7.90;;;3.72;;
70800;SDS011;59616;52.170;5.386;2022-07-12T02:39:19;9.82;;;3.50;;
70800;SDS011;59616;52.170;5.386;2022-07-12T02:41:46;7.55;;;3.60;;
70800;SDS011;59616;52.170;5.386;2022-07-12T02:44:13;7.97;;;3.65;;
70800;SDS011;59616;52.170;5.386;2022-07-12T02:46:39;8.98;;;3.90;;
70800;SDS011;59616;52.170;5.386;2022-07-12T02:49:06;8.32;;;3.70;;
70800;SDS011;59616;52.170;5.386;2022-07-12T02:51:33;7.20;;;3.60;;
70800;SDS011;59616;52.170;5.386;2022-07-12T02:54:00;8.38;;;4.00;;
70800;SDS011;59616;52.170;5.386;2022-07-12T02:56:26;7.80;;;3.88;;
70800;SDS011;59616;52.170;5.386;2022-07-12T02:58:53;10.18;;;4.03;;
70800;SDS011;59616;52.170;5.386;2022-07-12T03:01:20;8.77;;;3.60;;
70800;SDS011;59616;52.170;5.386;2022-07-12T03:03:46;8.55;;;3.80;;
70800;SDS011;59616;52.170;5.386;2022-07-12T03:06:13;8.82;;;3.85;;
70800;SDS011;59616;52.170;5.386;2022-07-12T03:08:40;8.38;;;3.63;;
70800;SDS011;59616;52.170;5.386;2022-07-12T03:11:08;10.25;;;3.50;;
70800;SDS011;59616;52.170;5.386;2022-07-12T03:13:35;8.13;;;3.80;;
70800;SDS011;59616;52.170;5.386;2022-07-12T03:16:02;9.27;;;4.05;;
70800;SDS011;59616;52.170;5.386;2022-07-12T03:18:29;8.48;;;3.60;;
70800;SDS011;59616;52.170;5.386;2022-07-12T03:20:57;8.38;;;3.55;;
70800;SDS011;59616;52.170;5.386;2022-07-12T03:23:23;8.10;;;3.97;;
70800;SDS011;59616;52.170;5.386;2022-07-12T03:25:50;10.68;;;4.35;;
70800;SDS011;59616;52.170;5.386;2022-07-12T03:28:17;8.38;;;3.30;;
70800;SDS011;59616;52.170;5.386;2022-07-12T03:30:43;7.88;;;3.85;;
70800;SDS011;59616;52.170;5.386;2022-07-12T03:33:10;8.73;;;4.05;;
70800;SDS011;59616;52.170;5.386;2022-07-12T03:35:37;9.23;;;4.32;;
70800;SDS011;59616;52.170;5.386;2022-07-12T03:38:04;9.60;;;4.10;;
70800;SDS011;59616;52.170;5.386;2022-07-12T03:40:31;8.80;;;4.05;;
70800;SDS011;59616;52.170;5.386;2022-07-12T03:42:58;8.52;;;4.18;;
70800;SDS011;59616;52.170;5.386;2022-07-12T03:45:25;8.77;;;4.40;;
70800;SDS011;59616;52.170;5.386;2022-07-12T03:47:52;8.40;;;3.95;;
70800;SDS011;59616;52.170;5.386;2022-07-12T03:50:18;7.63;;;3.90;;
70800;SDS011;59616;52.170;5.386;2022-07-12T03:52:45;8.82;;;4.03;;
70800;SDS011;59616;52.170;5.386;2022-07-12T03:55:12;10.90;;;4.50;;
70800;SDS011;59616;52.170;5.386;2022-07-12T03:57:39;9.73;;;4.75;;
70800;SDS011;59616;52.170;5.386;2022-07-12T04:00:07;8.57;;;4.18;;
70800;SDS011;59616;52.170;5.386;2022-07-12T04:02:39;9.57;;;4.72;;
70800;SDS011;59616;52.170;5.386;2022-07-12T04:05:07;10.02;;;4.78;;
70800;SDS011;59616;52.170;5.386;2022-07-12T04:07:35;8.38;;;4.43;;
70800;SDS011;59616;52.170;5.386;2022-07-12T04:10:03;9.93;;;4.60;;
70800;SDS011;59616;52.170;5.386;2022-07-12T04:12:30;10.85;;;4.80;;
70800;SDS011;59616;52.170;5.386;2022-07-12T04:15:01;8.75;;;4.65;;
70800;SDS011;59616;52.170;5.386;2022-07-12T04:17:28;8.15;;;4.10;;
70800;SDS011;59616;52.170;5.386;2022-07-12T04:19:55;8.00;;;4.03;;
70800;SDS011;59616;52.170;5.386;2022-07-12T04:22:22;7.75;;;3.47;;
70800;SDS011;59616;52.170;5.386;2022-07-12T04:24:49;8.48;;;3.70;;
70800;SDS011;59616;52.170;5.386;2022-07-12T04:27:15;8.35;;;3.80;;
70800;SDS011;59616;52.170;5.386;2022-07-12T04:29:42;7.93;;;4.10;;
70800;SDS011;59616;52.170;5.386;2022-07-12T04:32:10;8.77;;;4.07;;
70800;SDS011;59616;52.170;5.386;2022-07-12T04:34:37;8.38;;;3.90;;
70800;SDS011;59616;52.170;5.386;2022-07-12T04:37:03;11.43;;;4.13;;
70800;SDS011;59616;52.170;5.386;2022-07-12T04:39:30;8.25;;;4.22;;
70800;SDS011;59616;52.170;5.386;2022-07-12T04:41:57;8.10;;;4.18;;
70800;SDS011;59616;52.170;5.386;2022-07-12T04:44:24;10.00;;;4.72;;
70800;SDS011;59616;52.170;5.386;2022-07-12T04:46:50;10.73;;;5.03;;
70800;SDS011;59616;52.170;5.386;2022-07-12T04:49:17;10.30;;;5.22;;
70800;SDS011;59616;52.170;5.386;2022-07-12T04:51:44;9.85;;;5.22;;
70800;SDS011;59616;52.170;5.386;2022-07-12T04:54:11;10.38;;;5.10;;
70800;SDS011;59616;52.170;5.386;2022-07-12T04:56:38;9.60;;;5.03;;
70800;SDS011;59616;52.170;5.386;2022-07-12T04:59:04;11.45;;;5.45;;
70800;SDS011;59616;52.170;5.386;2022-07-12T05:01:31;10.70;;;5.60;;
70800;SDS011;59616;52.170;5.386;2022-07-12T05:03:58;9.90;;;5.40;;
70800;SDS011;59616;52.170;5.386;2022-07-12T05:06:25;9.18;;;5.00;;
70800;SDS011;59616;52.170;5.386;2022-07-12T05:08:52;10.32;;;5.45;;
70800;SDS011;59616;52.170;5.386;2022-07-12T05:11:19;9.82;;;5.38;;
70800;SDS011;59616;52.170;5.386;2022-07-12T05:13:46;10.90;;;5.38;;
70800;SDS011;59616;52.170;5.386;2022-07-12T05:16:13;9.98;;;5.13;;
70800;SDS011;59616;52.170;5.386;2022-07-12T05:18:40;10.85;;;5.68;;
70800;SDS011;59616;52.170;5.386;2022-07-12T05:21:07;10.82;;;5.72;;
70800;SDS011;59616;52.170;5.386;2022-07-12T05:23:34;10.68;;;5.75;;
70800;SDS011;59616;52.170;5.386;2022-07-12T05:26:01;11.45;;;6.30;;
70800;SDS011;59616;52.170;5.386;2022-07-12T05:28:28;15.00;;;7.07;;
70800;SDS011;59616;52.170;5.386;2022-07-12T05:30:55;12.43;;;6.05;;
70800;SDS011;59616;52.170;5.386;2022-07-12T05:33:22;11.60;;;6.72;;
70800;SDS011;59616;52.170;5.386;2022-07-12T05:35:49;12.48;;;6.63;;
70800;SDS011;59616;52.170;5.386;2022-07-12T05:38:17;12.23;;;6.43;;
70800;SDS011;59616;52.170;5.386;2022-07-12T05:40:44;14.05;;;6.90;;
70800;SDS011;59616;52.170;5.386;2022-07-12T05:43:10;16.17;;;7.80;;
70800;SDS011;59616;52.170;5.386;2022-07-12T05:45:37;14.75;;;8.13;;
70800;SDS011;59616;52.170;5.386;2022-07-12T05:48:04;14.13;;;7.60;;
70800;SDS011;59616;52.170;5.386;2022-07-12T05:50:31;15.77;;;8.80;;
70800;SDS011;59616;52.170;5.386;2022-07-12T05:52:58;15.13;;;8.48;;
70800;SDS011;59616;52.170;5.386;2022-07-12T05:55:43;15.00;;;8.45;;
70800;SDS011;59616;52.170;5.386;2022-07-12T05:58:11;14.98;;;8.48;;
70800;SDS011;59616;52.170;5.386;2022-07-12T06:00:37;16.13;;;8.15;;
70800;SDS011;59616;52.170;5.386;2022-07-12T06:03:04;18.90;;;8.40;;
70800;SDS011;59616;52.170;5.386;2022-07-12T06:05:31;15.77;;;7.78;;
70800;SDS011;59616;52.170;5.386;2022-07-12T06:07:58;14.55;;;8.18;;
70800;SDS011;59616;52.170;5.386;2022-07-12T06:10:24;13.68;;;7.80;;
70800;SDS011;59616;52.170;5.386;2022-07-12T06:12:51;14.07;;;7.72;;
70800;SDS011;59616;52.170;5.386;2022-07-12T06:15:18;11.82;;;6.88;;
70800;SDS011;59616;52.170;5.386;2022-07-12T06:17:45;13.13;;;7.35;;
70800;SDS011;59616;52.170;5.386;2022-07-12T06:20:14;12.57;;;7.07;;
70800;SDS011;59616;52.170;5.386;2022-07-12T06:22:40;11.88;;;6.32;;
70800;SDS011;59616;52.170;5.386;2022-07-12T06:25:07;11.80;;;6.70;;
70800;SDS011;59616;52.170;5.386;2022-07-12T06:27:54;10.70;;;6.07;;
70800;SDS011;59616;52.170;5.386;2022-07-12T06:30:21;12.18;;;6.50;;
70800;SDS011;59616;52.170;5.386;2022-07-12T06:32:48;11.20;;;6.22;;
70800;SDS011;59616;52.170;5.386;2022-07-12T06:35:16;10.57;;;5.75;;
70800;SDS011;59616;52.170;5.386;2022-07-12T06:37:43;11.40;;;5.25;;
70800;SDS011;59616;52.170;5.386;2022-07-12T06:40:10;10.98;;;5.50;;
70800;SDS011;59616;52.170;5.386;2022-07-12T06:42:37;10.35;;;5.53;;
70800;SDS011;59616;52.170;5.386;2022-07-12T06:45:04;9.25;;;4.90;;
70800;SDS011;59616;52.170;5.386;2022-07-12T06:47:31;8.95;;;4.35;;
70800;SDS011;59616;52.170;5.386;2022-07-12T06:49:58;8.60;;;4.38;;
70800;SDS011;59616;52.170;5.386;2022-07-12T06:52:25;9.05;;;4.55;;
70800;SDS011;59616;52.170;5.386;2022-07-12T06:54:57;8.45;;;4.38;;
70800;SDS011;59616;52.170;5.386;2022-07-12T06:57:24;8.65;;;4.13;;
70800;SDS011;59616;52.170;5.386;2022-07-12T06:59:53;9.13;;;4.05;;
70800;SDS011;59616;52.170;5.386;2022-07-12T07:02:20;8.40;;;3.83;;
70800;SDS011;59616;52.170;5.386;2022-07-12T07:04:47;8.02;;;4.00;;
70800;SDS011;59616;52.170;5.386;2022-07-12T07:07:14;8.60;;;4.20;;
70800;SDS011;59616;52.170;5.386;2022-07-12T07:09:41;8.10;;;4.03;;
70800;SDS011;59616;52.170;5.386;2022-07-12T07:12:07;7.75;;;3.90;;
70800;SDS011;59616;52.170;5.386;2022-07-12T07:14:34;10.18;;;4.05;;
70800;SDS011;59616;52.170;5.386;2022-07-12T07:17:01;9.57;;;4.57;;
70800;SDS011;59616;52.170;5.386;2022-07-12T07:19:28;8.30;;;3.88;;
70800;SDS011;59616;52.170;5.386;2022-07-12T07:21:55;8.20;;;3.88;;
70800;SDS011;59616;52.170;5.386;2022-07-12T07:24:22;8.82;;;4.10;;
70800;SDS011;59616;52.170;5.386;2022-07-12T07:26:49;9.57;;;3.88;;
70800;SDS011;59616;52.170;5.386;2022-07-12T07:29:22;9.25;;;4.00;;
70800;SDS011;59616;52.170;5.386;2022-07-12T07:34:34;8.18;;;2.97;;
70800;SDS011;59616;52.170;5.386;2022-07-12T07:37:01;8.88;;;3.58;;
70800;SDS011;59616;52.170;5.386;2022-07-12T07:39:28;7.50;;;2.97;;
70800;SDS011;59616;52.170;5.386;2022-07-12T07:41:54;9.60;;;3.22;;
70800;SDS011;59616;52.170;5.386;2022-07-12T07:44:21;6.45;;;3.17;;
70800;SDS011;59616;52.170;5.386;2022-07-12T07:46:48;9.77;;;3.40;;
70800;SDS011;59616;52.170;5.386;2022-07-12T07:49:15;6.10;;;2.70;;
70800;SDS011;59616;52.170;5.386;2022-07-12T07:51:42;6.68;;;2.78;;
70800;SDS011;59616;52.170;5.386;2022-07-12T07:54:09;6.07;;;2.70;;
70800;SDS011;59616;52.170;5.386;2022-07-12T07:56:35;9.93;;;3.22;;
70800;SDS011;59616;52.170;5.386;2022-07-12T07:59:02;7.20;;;3.17;;
70800;SDS011;59616;52.170;5.386;2022-07-12T08:01:29;6.70;;;2.85;;
70800;SDS011;59616;52.170;5.386;2022-07-12T08:04:12;6.78;;;2.60;;
70800;SDS011;59616;52.170;5.386;2022-07-12T08:06:40;6.63;;;2.58;;
70800;SDS011;59616;52.170;5.386;2022-07-12T08:09:07;7.05;;;2.50;;
70800;SDS011;59616;52.170;5.386;2022-07-12T08:11:38;5.30;;;2.33;;
70800;SDS011;59616;52.170;5.386;2022-07-12T08:14:06;5.60;;;2.40;;
70800;SDS011;59616;52.170;5.386;2022-07-12T08:16:33;6.18;;;2.50;;
70800;SDS011;59616;52.170;5.386;2022-07-12T08:19:01;5.43;;;2.30;;
70800;SDS011;59616;52.170;5.386;2022-07-12T08:21:28;6.10;;;2.70;;
70800;SDS011;59616;52.170;5.386;2022-07-12T08:23:55;6.18;;;2.42;;
70800;SDS011;59616;52.170;5.386;2022-07-12T08:26:22;5.68;;;2.38;;
70800;SDS011;59616;52.170;5.386;2022-07-12T08:28:49;6.40;;;2.38;;
70800;SDS011;59616;52.170;5.386;2022-07-12T08:31:17;5.63;;;2.40;;
70800;SDS011;59616;52.170;5.386;2022-07-12T08:33:43;5.90;;;2.70;;
70800;SDS011;59616;52.170;5.386;2022-07-12T08:36:10;7.47;;;2.88;;
70800;SDS011;59616;52.170;5.386;2022-07-12T08:38:37;7.95;;;3.08;;
70800;SDS011;59616;52.170;5.386;2022-07-12T08:41:05;6.38;;;2.65;;
70800;SDS011;59616;52.170;5.386;2022-07-12T08:43:35;5.93;;;2.58;;
70800;SDS011;59616;52.170;5.386;2022-07-12T08:46:06;6.45;;;2.70;;
70800;SDS011;59616;52.170;5.386;2022-07-12T08:48:35;6.75;;;2.65;;
70800;SDS011;59616;52.170;5.386;2022-07-12T08:51:04;5.13;;;2.10;;
70800;SDS011;59616;52.170;5.386;2022-07-12T08:53:32;5.47;;;2.40;;
70800;SDS011;59616;52.170;5.386;2022-07-12T08:55:59;5.13;;;2.17;;
70800;SDS011;59616;52.170;5.386;2022-07-12T08:58:26;6.13;;;2.28;;
70800;SDS011;59616;52.170;5.386;2022-07-12T09:00:52;5.22;;;1.80;;
70800;SDS011;59616;52.170;5.386;2022-07-12T09:03:19;4.00;;;1.80;;
70800;SDS011;59616;52.170;5.386;2022-07-12T09:05:50;3.45;;;1.60;;
70800;SDS011;59616;52.170;5.386;2022-07-12T09:08:23;5.60;;;1.83;;
70800;SDS011;59616;52.170;5.386;2022-07-12T09:10:56;4.05;;;1.83;;
70800;SDS011;59616;52.170;5.386;2022-07-12T09:16:33;4.68;;;1.80;;
70800;SDS011;59616;52.170;5.386;2022-07-12T09:19:12;7.93;;;2.40;;
70800;SDS011;59616;52.170;5.386;2022-07-12T09:21:49;4.72;;;1.92;;
70800;SDS011;59616;52.170;5.386;2022-07-12T09:24:23;4.22;;;1.73;;
70800;SDS011;59616;52.170;5.386;2022-07-12T09:29:31;3.53;;;1.60;;
70800;SDS011;59616;52.170;5.386;2022-07-12T09:32:06;5.45;;;2.33;;
70800;SDS011;59616;52.170;5.386;2022-07-12T09:34:58;5.32;;;1.95;;
70800;SDS011;59616;52.170;5.386;2022-07-12T09:37:44;5.18;;;2.25;;
70800;SDS011;59616;52.170;5.386;2022-07-12T09:40:10;6.60;;;2.30;;
70800;SDS011;59616;52.170;5.386;2022-07-12T09:42:39;4.68;;;2.05;;
70800;SDS011;59616;52.170;5.386;2022-07-12T09:45:09;5.40;;;2.00;;
70800;SDS011;59616;52.170;5.386;2022-07-12T09:47:37;5.28;;;2.42;;
70800;SDS011;59616;52.170;5.386;2022-07-12T09:50:04;6.30;;;2.60;;
70800;SDS011;59616;52.170;5.386;2022-07-12T09:52:34;4.22;;;1.80;;
70800;SDS011;59616;52.170;5.386;2022-07-12T09:55:03;5.78;;;2.42;;
70800;SDS011;59616;52.170;5.386;2022-07-12T09:57:32;5.57;;;2.58;;
70800;SDS011;59616;52.170;5.386;2022-07-12T10:00:00;3.63;;;1.60;;
70800;SDS011;59616;52.170;5.386;2022-07-12T10:02:36;5.13;;;1.77;;
70800;SDS011;59616;52.170;5.386;2022-07-12T10:05:04;4.65;;;1.90;;
70800;SDS011;59616;52.170;5.386;2022-07-12T10:07:36;4.10;;;1.70;;
70800;SDS011;59616;52.170;5.386;2022-07-12T10:10:03;4.68;;;2.08;;
70800;SDS011;59616;52.170;5.386;2022-07-12T10:12:31;3.97;;;1.70;;
70800;SDS011;59616;52.170;5.386;2022-07-12T10:15:00;5.78;;;2.15;;
70800;SDS011;59616;52.170;5.386;2022-07-12T10:17:29;3.55;;;1.58;;
70800;SDS011;59616;52.170;5.386;2022-07-12T10:20:12;3.58;;;1.50;;
70800;SDS011;59616;52.170;5.386;2022-07-12T10:22:43;3.75;;;1.80;;
70800;SDS011;59616;52.170;5.386;2022-07-12T10:25:29;3.53;;;1.70;;
70800;SDS011;59616;52.170;5.386;2022-07-12T10:27:57;4.97;;;2.10;;
70800;SDS011;59616;52.170;5.386;2022-07-12T10:30:25;6.55;;;1.77;;
70800;SDS011;59616;52.170;5.386;2022-07-12T10:32:53;4.45;;;1.90;;
70800;SDS011;59616;52.170;5.386;2022-07-12T10:35:27;4.85;;;1.60;;
70800;SDS011;59616;52.170;5.386;2022-07-12T10:40:37;7.85;;;2.38;;
70800;SDS011;59616;52.170;5.386;2022-07-12T10:45:34;4.97;;;1.85;;
70800;SDS011;59616;52.170;5.386;2022-07-12T10:48:06;7.88;;;1.83;;
70800;SDS011;59616;52.170;5.386;2022-07-12T10:58:36;7.20;;;1.92;;
70800;SDS011;59616;52.170;5.386;2022-07-12T11:01:05;7.32;;;2.75;;
70800;SDS011;59616;52.170;5.386;2022-07-12T11:03:38;6.63;;;3.00;;
70800;SDS011;59616;52.170;5.386;2022-07-12T11:06:06;6.40;;;2.20;;
70800;SDS011;59616;52.170;5.386;2022-07-12T11:11:19;5.90;;;2.25;;
70800;SDS011;59616;52.170;5.386;2022-07-12T11:13:47;6.97;;;2.30;;
70800;SDS011;59616;52.170;5.386;2022-07-12T11:16:14;4.93;;;2.30;;
70800;SDS011;59616;52.170;5.386;2022-07-12T11:18:43;6.38;;;2.83;;
70800;SDS011;59616;52.170;5.386;2022-07-12T11:21:11;6.72;;;2.70;;
70800;SDS011;59616;52.170;5.386;2022-07-12T11:23:39;6.95;;;2.70;;
70800;SDS011;59616;52.170;5.386;2022-07-12T11:26:10;5.90;;;2.70;;
70800;SDS011;59616;52.170;5.386;2022-07-12T11:28:37;5.85;;;2.38;;
70800;SDS011;59616;52.170;5.386;2022-07-12T11:31:06;5.45;;;2.25;;
70800;SDS011;59616;52.170;5.386;2022-07-12T11:33:36;3.92;;;1.80;;
70800;SDS011;59616;52.170;5.386;2022-07-12T11:36:07;4.05;;;1.77;;
70800;SDS011;59616;52.170;5.386;2022-07-12T11:38:36;3.35;;;1.70;;
70800;SDS011;59616;52.170;5.386;2022-07-12T11:41:10;6.28;;;2.60;;
70800;SDS011;59616;52.170;5.386;2022-07-12T11:43:37;5.18;;;2.28;;
70800;SDS011;59616;52.170;5.386;2022-07-12T11:46:05;4.43;;;2.17;;
70800;SDS011;59616;52.170;5.386;2022-07-12T11:48:34;7.32;;;2.20;;
70800;SDS011;59616;52.170;5.386;2022-07-12T11:51:06;5.40;;;1.95;;
70800;SDS011;59616;52.170;5.386;2022-07-12T11:53:35;5.35;;;2.63;;
70800;SDS011;59616;52.170;5.386;2022-07-12T11:56:04;4.78;;;2.05;;
70800;SDS011;59616;52.170;5.386;2022-07-12T11:58:32;5.93;;;2.40;;
70800;SDS011;59616;52.170;5.386;2022-07-12T12:01:04;4.55;;;2.10;;
70800;SDS011;59616;52.170;5.386;2022-07-12T12:03:32;3.90;;;1.90;;
70800;SDS011;59616;52.170;5.386;2022-07-12T12:06:09;5.60;;;2.10;;
70800;SDS011;59616;52.170;5.386;2022-07-12T12:08:36;5.88;;;2.25;;
70800;SDS011;59616;52.170;5.386;2022-07-12T12:11:03;3.75;;;2.00;;
70800;SDS011;59616;52.170;5.386;2022-07-12T12:13:30;4.10;;;1.98;;
70800;SDS011;59616;52.170;5.386;2022-07-12T12:16:03;5.88;;;2.33;;
70800;SDS011;59616;52.170;5.386;2022-07-12T12:18:38;5.55;;;2.30;;
70800;SDS011;59616;52.170;5.386;2022-07-12T12:21:10;5.80;;;2.38;;
70800;SDS011;59616;52.170;5.386;2022-07-12T12:23:39;4.70;;;2.10;;
70800;SDS011;59616;52.170;5.386;2022-07-12T12:26:20;3.83;;;1.90;;
70800;SDS011;59616;52.170;5.386;2022-07-12T12:28:50;4.22;;;1.80;;
70800;SDS011;59616;52.170;5.386;2022-07-12T12:31:21;3.55;;;1.80;;
70800;SDS011;59616;52.170;5.386;2022-07-12T12:33:50;3.85;;;1.90;;
70800;SDS011;59616;52.170;5.386;2022-07-12T12:36:20;5.93;;;2.17;;
70800;SDS011;59616;52.170;5.386;2022-07-12T12:38:54;4.43;;;1.80;;
70800;SDS011;59616;52.170;5.386;2022-07-12T12:41:26;4.35;;;1.90;;
70800;SDS011;59616;52.170;5.386;2022-07-12T12:43:58;4.25;;;1.70;;
70800;SDS011;59616;52.170;5.386;2022-07-12T12:52:21;5.40;;;2.00;;
70800;SDS011;59616;52.170;5.386;2022-07-12T12:54:47;6.07;;;1.90;;
70800;SDS011;59616;52.170;5.386;2022-07-12T12:57:14;5.25;;;2.00;;
70800;SDS011;59616;52.170;5.386;2022-07-12T12:59:41;2.97;;;1.58;;
70800;SDS011;59616;52.170;5.386;2022-07-12T13:02:08;4.18;;;1.70;;
70800;SDS011;59616;52.170;5.386;2022-07-12T13:04:36;4.35;;;1.77;;
70800;SDS011;59616;52.170;5.386;2022-07-12T13:07:04;4.55;;;1.85;;
70800;SDS011;59616;52.170;5.386;2022-07-12T13:09:37;4.65;;;2.03;;
70800;SDS011;59616;52.170;5.386;2022-07-12T13:12:04;4.78;;;1.92;;
70800;SDS011;59616;52.170;5.386;2022-07-12T13:14:31;3.28;;;1.73;;
70800;SDS011;59616;52.170;5.386;2022-07-12T13:16:58;3.65;;;1.75;;
70800;SDS011;59616;52.170;5.386;2022-07-12T13:19:25;3.33;;;1.80;;
70800;SDS011;59616;52.170;5.386;2022-07-12T13:21:52;3.00;;;1.80;;
70800;SDS011;59616;52.170;5.386;2022-07-12T13:24:19;5.45;;;2.13;;
70800;SDS011;59616;52.170;5.386;2022-07-12T13:26:45;4.80;;;1.70;;
70800;SDS011;59616;52.170;5.386;2022-07-12T13:29:12;4.35;;;1.90;;
70800;SDS011;59616;52.170;5.386;2022-07-12T13:31:39;4.13;;;1.83;;
70800;SDS011;59616;52.170;5.386;2022-07-12T13:34:07;3.33;;;1.90;;
70800;SDS011;59616;52.170;5.386;2022-07-12T13:36:33;3.30;;;1.73;;
70800;SDS011;59616;52.170;5.386;2022-07-12T13:39:00;8.50;;;1.92;;
70800;SDS011;59616;52.170;5.386;2022-07-12T13:41:47;3.03;;;1.70;;
70800;SDS011;59616;52.170;5.386;2022-07-12T13:44:14;4.50;;;1.95;;
70800;SDS011;59616;52.170;5.386;2022-07-12T13:46:47;5.10;;;2.08;;
70800;SDS011;59616;52.170;5.386;2022-07-12T13:49:14;4.32;;;1.92;;
70800;SDS011;59616;52.170;5.386;2022-07-12T13:51:41;4.22;;;2.00;;
70800;SDS011;59616;52.170;5.386;2022-07-12T13:54:07;5.80;;;1.90;;
70800;SDS011;59616;52.170;5.386;2022-07-12T13:56:34;3.67;;;1.92;;
70800;SDS011;59616;52.170;5.386;2022-07-12T13:59:02;3.95;;;1.98;;
70800;SDS011;59616;52.170;5.386;2022-07-12T14:01:30;4.05;;;2.10;;
70800;SDS011;59616;52.170;5.386;2022-07-12T14:03:57;5.50;;;2.03;;
70800;SDS011;59616;52.170;5.386;2022-07-12T14:06:24;4.50;;;2.10;;
70800;SDS011;59616;52.170;5.386;2022-07-12T14:08:51;4.65;;;2.03;;
70800;SDS011;59616;52.170;5.386;2022-07-12T14:11:19;4.47;;;1.83;;
70800;SDS011;59616;52.170;5.386;2022-07-12T14:13:46;4.53;;;1.83;;
70800;SDS011;59616;52.170;5.386;2022-07-12T14:16:13;6.35;;;1.92;;
70800;SDS011;59616;52.170;5.386;2022-07-12T14:18:40;8.73;;;2.30;;
70800;SDS011;59616;52.170;5.386;2022-07-12T14:21:07;4.40;;;1.90;;
70800;SDS011;59616;52.170;5.386;2022-07-12T14:23:35;4.28;;;1.95;;
70800;SDS011;59616;52.170;5.386;2022-07-12T14:26:02;4.00;;;1.80;;
70800;SDS011;59616;52.170;5.386;2022-07-12T14:28:29;4.82;;;1.98;;
70800;SDS011;59616;52.170;5.386;2022-07-12T14:30:56;4.45;;;1.75;;
70800;SDS011;59616;52.170;5.386;2022-07-12T14:33:23;4.43;;;2.20;;
70800;SDS011;59616;52.170;5.386;2022-07-12T14:35:49;3.92;;;2.10;;
70800;SDS011;59616;52.170;5.386;2022-07-12T14:38:16;4.53;;;2.20;;
70800;SDS011;59616;52.170;5.386;2022-07-12T14:40:43;4.22;;;2.22;;
70800;SDS011;59616;52.170;5.386;2022-07-12T14:43:10;7.88;;;2.78;;
70800;SDS011;59616;52.170;5.386;2022-07-12T14:45:37;4.60;;;2.10;;
70800;SDS011;59616;52.170;5.386;2022-07-12T14:48:04;6.40;;;2.20;;
70800;SDS011;59616;52.170;5.386;2022-07-12T14:50:31;4.68;;;2.20;;
70800;SDS011;59616;52.170;5.386;2022-07-12T14:52:58;5.90;;;2.65;;
70800;SDS011;59616;52.170;5.386;2022-07-12T14:55:25;7.10;;;2.40;;
70800;SDS011;59616;52.170;5.386;2022-07-12T14:57:51;7.57;;;2.53;;
70800;SDS011;59616;52.170;5.386;2022-07-12T15:00:18;5.85;;;2.80;;
70800;SDS011;59616;52.170;5.386;2022-07-12T15:02:46;7.38;;;2.78;;
70800;SDS011;59616;52.170;5.386;2022-07-12T15:05:18;4.78;;;2.55;;
70800;SDS011;59616;52.170;5.386;2022-07-12T15:07:45;7.22;;;2.80;;
70800;SDS011;59616;52.170;5.386;2022-07-12T15:10:12;6.50;;;2.92;;
70800;SDS011;59616;52.170;5.386;2022-07-12T15:12:38;7.10;;;2.70;;
70800;SDS011;59616;52.170;5.386;2022-07-12T15:15:05;7.13;;;2.72;;
70800;SDS011;59616;52.170;5.386;2022-07-12T15:17:32;6.90;;;2.47;;
70800;SDS011;59616;52.170;5.386;2022-07-12T15:19:59;4.53;;;2.40;;
70800;SDS011;59616;52.170;5.386;2022-07-12T15:22:26;5.13;;;2.30;;